• Join FlightAware (Why Join?)
  • Login
  • US Flag 
01:13PM EDT


 

Airport Tracker/Info


-or-


 

Live Flight TrackerFlight Track Log ✈ N510SR ✈ 25-Apr-2013 ✈ KABE - KTEB

Flight Track Log - Related Links

Times and Time Zones

All times are in EDT time to prevent confusion due to time zone crossing. See the N510SR flight status page for this flight to view local times or setup timezone preferences in your user account.

Time Position Orientation Groundspeed Altitude Reporting Facility
EDT Latitude Longitude Course Direction KTS MPH feet Rate Location/Type
01:48PM 40.8833 -75.1000 103° East 272 313 4,900  Level New York TRACON
01:49PM 40.9167 -75.0167 62° Northeast 273 314 5,000  Climbing New York TRACON
01:50PM 40.8673 -75.0663 50° Northeast  Level FlightAware Approximate
01:50PM 40.9667 -74.9333 52° Northeast 271 312 5,000  Level New York TRACON
01:51PM 40.9050 -75.0058 50° Northeast  Level FlightAware Approximate
01:51PM 40.9500 -74.8500 105° East 270 311 4,000  Level New York TRACON
01:52PM 40.9426 -74.9452 51° Northeast  Level FlightAware Approximate
01:52PM 40.9333 -74.7500 102° East 272 313 4,000  Level New York TRACON
01:53PM 40.9763 -74.8807 56° Northeast  Level FlightAware Approximate
01:53PM 40.9167 -74.6667 105° East 247 284 3,000  Level New York TRACON
01:54PM 40.9729 -74.8065 103° East  Level FlightAware Approximate
01:54PM 40.8833 -74.5833 118° Southeast 233 268 3,000  Level New York TRACON
01:55PM 40.8167 -74.5667 169° South 227 261 3,000  Level New York TRACON
01:56PM 40.7667 -74.5167 143° Southeast 207 238 3,000  Level New York TRACON
01:57PM 40.7167 -74.4833 153° Southeast 218 251 3,000  Level New York TRACON
01:58PM 40.6833 -74.4333 131° Southeast 201 231 3,100  Climbing New York TRACON
01:59PM 40.6333 -74.3833 143° Southeast 214 246 3,000 -600 Descending New York TRACON
02:00PM 40.6667 -74.3333 49° Northeast 185 213 2,000 -540 Descending New York TRACON
02:01PM 40.7000 -74.2833 49° Northeast 185 213 2,000 -60 Level New York TRACON
02:02PM 40.7333 -74.2333 49° Northeast 182 209 1,900 -300 Descending New York TRACON
02:03PM 40.7667 -74.1833 49° Northeast 185 213 1,500 -300 Descending New York TRACON
02:04PM 40.8000 -74.1333 49° Northeast 166 191 1,300 -540 Descending New York TRACON
02:05PM 40.8333 -74.0833 49° Northeast 145 167 500 -840 Descending New York TRACON
02:07PM 40.8500 -74.0500 52° Northeast  Level FlightAware Approximate
02:14PM 40.8501 -74.0608 52° Northeast  Level Estimated
02:15PM 40.8501 -74.0608 52° Northeast  Level Estimated